createdAt,value
2017-10-25T00:00:55.732Z,16.63
2017-10-25T00:01:55.650Z,16.63
2017-10-25T00:02:55.565Z,16.59
2017-10-25T00:03:55.491Z,16.40
2017-10-25T00:04:55.407Z,16.23
2017-10-25T00:05:55.329Z,16.37
2017-10-25T00:06:55.258Z,16.41
2017-10-25T00:07:55.169Z,16.48
2017-10-25T00:08:55.080Z,16.60
2017-10-25T00:09:55.008Z,16.45
2017-10-25T00:10:54.925Z,16.27
2017-10-25T00:11:54.837Z,16.34
2017-10-25T00:12:54.766Z,16.31
2017-10-25T00:13:54.675Z,16.44
2017-10-25T00:14:54.590Z,16.44
2017-10-25T00:15:54.510Z,16.49
2017-10-25T00:16:54.434Z,16.26
2017-10-25T00:17:54.350Z,16.35
2017-10-25T00:18:54.267Z,16.44
2017-10-25T00:19:54.187Z,16.27
2017-10-25T00:20:54.103Z,16.35
2017-10-25T00:21:54.024Z,16.30
2017-10-25T00:22:53.944Z,16.37
2017-10-25T00:23:53.867Z,16.40
2017-10-25T00:24:53.779Z,16.37
2017-10-25T00:25:53.697Z,16.40
2017-10-25T00:26:53.626Z,16.38
2017-10-25T00:27:53.535Z,16.40
2017-10-25T00:28:53.469Z,16.41
2017-10-25T00:29:53.372Z,16.52
2017-10-25T00:30:53.311Z,16.49
2017-10-25T00:31:53.215Z,16.38
2017-10-25T00:32:53.128Z,16.31
2017-10-25T00:33:53.057Z,16.45
2017-10-25T00:34:53.021Z,16.49
2017-10-25T00:35:52.891Z,16.53
2017-10-25T00:36:52.810Z,16.42
2017-10-25T00:37:52.724Z,16.52
2017-10-25T00:38:52.640Z,16.40
2017-10-25T00:39:52.559Z,16.44
2017-10-25T00:40:52.484Z,16.44
2017-10-25T00:41:52.399Z,16.49
2017-10-25T00:42:52.316Z,16.42
2017-10-25T00:43:52.236Z,16.45
2017-10-25T00:44:52.178Z,16.44
2017-10-25T00:45:52.077Z,16.38
2017-10-25T00:46:51.993Z,16.42
2017-10-25T00:47:51.912Z,16.26
2017-10-25T00:48:51.831Z,16.34
2017-10-25T00:49:51.745Z,16.49
2017-10-25T00:50:51.666Z,16.48
2017-10-25T00:51:51.589Z,16.49
2017-10-25T00:52:51.511Z,16.56
2017-10-25T00:53:51.425Z,16.49
2017-10-25T00:54:51.353Z,16.49
2017-10-25T00:55:51.276Z,16.53
2017-10-25T00:56:51.179Z,16.63
2017-10-25T00:57:51.101Z,16.63
2017-10-25T00:58:51.023Z,16.56
2017-10-25T00:59:50.948Z,16.48
2017-10-25T01:00:50.861Z,16.49
2017-10-25T01:01:50.775Z,16.53
2017-10-25T01:02:50.712Z,16.48
2017-10-25T01:03:50.620Z,16.45
2017-10-25T01:04:50.536Z,16.37
2017-10-25T01:05:50.459Z,16.55
2017-10-25T01:06:50.373Z,16.50
2017-10-25T01:07:50.297Z,16.60
2017-10-25T01:08:50.225Z,16.62
2017-10-25T01:09:50.138Z,16.67
2017-10-25T01:10:50.051Z,16.50
2017-10-25T01:11:49.973Z,16.59
2017-10-25T01:12:49.888Z,16.60
2017-10-25T01:13:49.805Z,16.63
2017-10-25T01:14:49.719Z,16.53
2017-10-25T01:15:49.643Z,16.48
2017-10-25T01:16:49.560Z,16.50
2017-10-25T01:17:49.499Z,16.60
2017-10-25T01:18:49.403Z,16.62
2017-10-25T01:19:49.336Z,16.67
2017-10-25T01:20:49.240Z,16.38
2017-10-25T01:21:49.162Z,16.42
2017-10-25T01:22:49.080Z,16.34
2017-10-25T01:23:49.008Z,16.41
2017-10-25T01:24:48.921Z,16.42
2017-10-25T01:25:48.828Z,16.34
2017-10-25T01:26:48.753Z,16.50
2017-10-25T01:27:48.677Z,16.62
2017-10-25T01:28:48.591Z,16.38
2017-10-25T01:29:48.508Z,16.42
2017-10-25T01:30:48.429Z,16.52
2017-10-25T01:31:48.364Z,16.45
2017-10-25T01:32:48.267Z,16.40
2017-10-25T01:33:48.180Z,16.42
2017-10-25T01:34:48.107Z,16.40
2017-10-25T01:35:48.027Z,16.52
2017-10-25T01:36:47.957Z,16.50
2017-10-25T01:37:47.874Z,16.44
2017-10-25T01:38:47.783Z,16.49
2017-10-25T01:39:47.714Z,16.52
2017-10-25T01:40:47.621Z,16.56
2017-10-25T01:41:47.541Z,16.52
2017-10-25T01:42:47.461Z,16.49
2017-10-25T01:43:47.389Z,16.52
2017-10-25T01:44:47.298Z,16.48
2017-10-25T01:45:47.222Z,16.25
2017-10-25T01:46:47.165Z,16.37
2017-10-25T01:47:47.063Z,16.30
2017-10-25T01:48:46.975Z,16.41
2017-10-25T01:49:46.905Z,16.50
2017-10-25T01:50:46.817Z,16.56
2017-10-25T01:51:46.752Z,16.55
2017-10-25T01:52:46.649Z,16.41
2017-10-25T01:53:46.571Z,16.34
2017-10-25T01:54:46.488Z,16.44
2017-10-25T01:55:46.410Z,16.49
2017-10-25T01:56:46.326Z,16.56
2017-10-25T01:57:46.256Z,16.50
2017-10-25T01:58:46.176Z,16.35
2017-10-25T01:59:46.090Z,16.42
2017-10-25T02:00:46.009Z,16.44
2017-10-25T02:01:45.923Z,16.56
2017-10-25T02:02:45.841Z,16.53
2017-10-25T02:03:45.765Z,16.41
2017-10-25T02:04:45.689Z,16.31
2017-10-25T02:05:45.630Z,16.48
2017-10-25T02:06:45.519Z,16.50
2017-10-25T02:07:45.440Z,16.48
2017-10-25T02:08:45.364Z,16.53
2017-10-25T02:09:45.278Z,16.48
2017-10-25T02:10:45.209Z,16.52
2017-10-25T02:11:45.123Z,16.49
2017-10-25T02:12:45.041Z,16.52
2017-10-25T02:13:44.955Z,16.42
2017-10-25T02:14:44.872Z,16.48
2017-10-25T02:15:44.797Z,16.56
2017-10-25T02:16:44.716Z,16.62
2017-10-25T02:17:44.637Z,16.50
2017-10-25T02:18:44.551Z,16.52
2017-10-25T02:19:44.466Z,16.49
2017-10-25T02:20:44.392Z,16.52
2017-10-25T02:21:44.314Z,16.50
2017-10-25T02:22:44.231Z,16.56
2017-10-25T02:23:44.149Z,16.50
2017-10-25T02:24:44.070Z,16.53
2017-10-25T02:25:43.985Z,16.50
2017-10-25T02:26:43.914Z,16.50
2017-10-25T02:27:43.844Z,16.52
2017-10-25T02:28:43.744Z,16.40
2017-10-25T02:29:43.664Z,16.49
2017-10-25T02:30:43.579Z,16.50
2017-10-25T02:31:43.500Z,16.45
2017-10-25T02:32:43.424Z,16.48
2017-10-25T02:33:43.345Z,16.56
2017-10-25T02:34:43.255Z,16.52
2017-10-25T02:35:43.176Z,16.56
2017-10-25T02:36:43.100Z,16.44
2017-10-25T02:37:43.019Z,16.27
2017-10-25T02:38:42.947Z,16.31
2017-10-25T02:39:42.862Z,16.31
2017-10-25T02:40:42.791Z,16.44
2017-10-25T02:41:42.701Z,16.34
2017-10-25T02:42:42.625Z,16.35
2017-10-25T02:43:42.539Z,16.41
2017-10-25T02:44:42.449Z,16.40
2017-10-25T02:45:42.378Z,16.44
2017-10-25T02:46:42.287Z,16.44
2017-10-25T02:47:42.225Z,16.49
2017-10-25T02:48:42.122Z,16.53
2017-10-25T02:49:42.047Z,16.42
2017-10-25T02:50:41.964Z,16.34
2017-10-25T02:51:41.879Z,16.27
2017-10-25T02:52:41.800Z,16.26
2017-10-25T02:53:41.725Z,16.34
2017-10-25T02:54:41.681Z,16.33
2017-10-25T02:55:41.569Z,16.40
2017-10-25T02:56:41.479Z,16.41
2017-10-25T02:57:41.395Z,16.40
2017-10-25T02:58:41.318Z,16.45
2017-10-25T02:59:41.260Z,16.45
2017-10-25T03:00:41.156Z,16.55
2017-10-25T03:01:41.070Z,16.37
2017-10-25T03:02:41.005Z,16.35
2017-10-25T03:03:40.919Z,16.41
2017-10-25T03:04:40.835Z,16.37
2017-10-25T03:05:40.749Z,16.37
2017-10-25T03:06:40.675Z,16.44
2017-10-25T03:07:40.604Z,16.35
2017-10-25T03:08:40.525Z,16.33
2017-10-25T03:09:40.431Z,16.23
2017-10-25T03:10:40.349Z,16.22
2017-10-25T03:11:40.263Z,16.20
2017-10-25T03:12:40.183Z,16.31
2017-10-25T03:13:40.103Z,16.27
2017-10-25T03:14:40.031Z,16.23
2017-10-25T03:15:39.944Z,16.14
2017-10-25T03:16:39.863Z,16.09
2017-10-25T03:17:39.780Z,16.09
2017-10-25T03:18:39.697Z,16.20
2017-10-25T03:19:39.627Z,16.23
2017-10-25T03:20:39.533Z,16.27
2017-10-25T03:21:39.459Z,16.27
2017-10-25T03:22:39.380Z,16.27
2017-10-25T03:23:39.306Z,16.25
2017-10-25T03:24:39.218Z,16.23
2017-10-25T03:25:39.133Z,16.26
2017-10-25T03:26:39.052Z,16.27
2017-10-25T03:27:38.971Z,16.34
2017-10-25T03:28:38.894Z,16.40
2017-10-25T03:29:38.820Z,16.30
2017-10-25T03:30:38.734Z,16.34
2017-10-25T03:31:38.646Z,16.35
2017-10-25T03:32:38.564Z,16.38
2017-10-25T03:33:38.483Z,16.38
2017-10-25T03:34:38.404Z,16.42
2017-10-25T03:35:38.324Z,16.34
2017-10-25T03:36:38.246Z,16.40
2017-10-25T03:37:38.162Z,16.25
2017-10-25T03:38:38.082Z,16.20
2017-10-25T03:39:37.998Z,16.33
2017-10-25T03:40:37.917Z,16.31
2017-10-25T03:41:37.842Z,16.34
2017-10-25T03:42:37.760Z,16.37
2017-10-25T03:43:37.680Z,16.30
2017-10-25T03:44:37.598Z,16.38
2017-10-25T03:45:37.514Z,16.34
2017-10-25T03:46:37.446Z,16.33
2017-10-25T03:47:37.353Z,16.27
2017-10-25T03:48:37.272Z,16.35
2017-10-25T03:49:37.198Z,16.34
2017-10-25T03:50:37.116Z,16.38
2017-10-25T03:51:37.033Z,16.42
2017-10-25T03:52:36.952Z,16.38
2017-10-25T03:53:36.870Z,16.44
2017-10-25T03:54:36.786Z,16.37
2017-10-25T03:55:36.707Z,16.31
2017-10-25T03:56:36.626Z,16.25
2017-10-25T03:57:36.547Z,16.35
2017-10-25T03:58:36.461Z,16.41
2017-10-25T03:59:36.383Z,16.30
2017-10-25T04:00:36.307Z,16.41
2017-10-25T04:01:36.223Z,16.30
2017-10-25T04:02:36.136Z,16.00
2017-10-25T04:03:36.063Z,16.09
2017-10-25T04:04:35.977Z,16.07
2017-10-25T04:05:35.904Z,16.09
2017-10-25T04:06:35.820Z,16.26
2017-10-25T04:07:35.739Z,16.18
2017-10-25T04:08:35.664Z,16.20
2017-10-25T04:09:35.586Z,16.26
2017-10-25T04:10:35.506Z,16.35
2017-10-25T04:11:35.424Z,16.07
2017-10-25T04:12:35.331Z,16.11
2017-10-25T04:13:35.246Z,16.20
2017-10-25T04:14:35.166Z,16.23
2017-10-25T04:15:35.090Z,16.14
2017-10-25T04:16:35.008Z,16.14
2017-10-25T04:17:34.941Z,16.04
2017-10-25T04:18:34.861Z,16.07
2017-10-25T04:19:34.768Z,16.11
2017-10-25T04:20:34.681Z,16.25
2017-10-25T04:21:34.607Z,16.20
2017-10-25T04:22:34.534Z,16.25
2017-10-25T04:23:34.439Z,16.07
2017-10-25T04:24:34.364Z,16.22
2017-10-25T04:25:34.277Z,16.11
2017-10-25T04:26:34.199Z,16.06
2017-10-25T04:27:34.115Z,15.94
2017-10-25T04:28:34.031Z,15.99
2017-10-25T04:29:33.955Z,16.14
2017-10-25T04:30:33.905Z,16.12
2017-10-25T04:31:33.792Z,16.22
2017-10-25T04:32:33.704Z,16.11
2017-10-25T04:33:33.625Z,16.12
2017-10-25T04:34:33.548Z,16.04
2017-10-25T04:35:33.466Z,16.11
2017-10-25T04:36:33.381Z,16.03
2017-10-25T04:37:33.302Z,16.01
2017-10-25T04:38:33.227Z,16.12
2017-10-25T04:39:33.148Z,16.07
2017-10-25T04:40:33.070Z,16.11
2017-10-25T04:41:32.979Z,16.11
2017-10-25T04:42:32.895Z,16.14
2017-10-25T04:43:32.812Z,16.22
2017-10-25T04:44:32.735Z,16.25
2017-10-25T04:45:32.654Z,16.18
2017-10-25T04:46:32.573Z,16.26
2017-10-25T04:47:32.498Z,16.26
2017-10-25T04:48:32.421Z,16.23
2017-10-25T04:49:32.342Z,16.30
2017-10-25T04:50:32.248Z,16.30
2017-10-25T04:51:32.167Z,16.25
2017-10-25T04:52:32.089Z,16.06
2017-10-25T04:53:32.027Z,16.16
2017-10-25T04:54:31.921Z,16.09
2017-10-25T04:55:31.844Z,16.06
2017-10-25T04:56:31.759Z,16.14
2017-10-25T04:57:31.681Z,16.15
2017-10-25T04:58:31.600Z,16.07
2017-10-25T04:59:31.520Z,16.22
2017-10-25T05:00:31.469Z,16.25
2017-10-25T05:01:31.354Z,16.22
2017-10-25T05:02:31.271Z,16.27
2017-10-25T05:03:31.193Z,16.30
2017-10-25T05:04:31.119Z,16.25
2017-10-25T05:05:31.037Z,16.09
2017-10-25T05:06:30.946Z,16.26
2017-10-25T05:07:30.896Z,16.22
2017-10-25T05:08:30.789Z,16.12
2017-10-25T05:09:30.712Z,15.96
2017-10-25T05:10:30.627Z,16.12
2017-10-25T05:11:30.548Z,16.11
2017-10-25T05:12:30.484Z,16.14
2017-10-25T05:13:30.385Z,16.06
2017-10-25T05:14:30.309Z,16.16
2017-10-25T05:15:30.220Z,16.23
2017-10-25T05:16:30.145Z,16.23
2017-10-25T05:17:30.071Z,16.23
2017-10-25T05:18:29.981Z,16.30
2017-10-25T05:19:29.900Z,16.14
2017-10-25T05:20:29.812Z,16.20
2017-10-25T05:21:29.740Z,16.11
2017-10-25T05:22:29.659Z,16.04
2017-10-25T05:23:29.580Z,16.11
2017-10-25T05:24:29.488Z,16.12
2017-10-25T05:25:29.411Z,16.11
2017-10-25T05:26:29.335Z,16.06
2017-10-25T05:27:29.255Z,16.01
2017-10-25T05:28:29.189Z,15.96
2017-10-25T05:29:29.092Z,16.04
2017-10-25T05:30:29.007Z,16.06
2017-10-25T05:31:28.922Z,16.06
2017-10-25T05:32:28.843Z,16.06
2017-10-25T05:33:28.764Z,16.06
2017-10-25T05:34:28.689Z,15.96
2017-10-25T05:35:28.611Z,15.84
2017-10-25T05:36:28.538Z,15.92
2017-10-25T05:37:28.441Z,15.96
2017-10-25T05:38:28.363Z,16.01
2017-10-25T05:39:28.282Z,16.06
2017-10-25T05:40:28.196Z,16.03
2017-10-25T05:41:28.115Z,15.85
2017-10-25T05:42:28.042Z,15.93
2017-10-25T05:43:27.954Z,15.99
2017-10-25T05:44:27.874Z,16.03
2017-10-25T05:45:27.790Z,16.01
2017-10-25T05:46:27.726Z,15.99
2017-10-25T05:47:27.636Z,15.89
2017-10-25T05:48:27.549Z,15.89
2017-10-25T05:49:27.469Z,15.96
2017-10-25T05:50:27.422Z,15.96
2017-10-25T05:51:27.307Z,15.81
2017-10-25T05:52:27.229Z,15.81
2017-10-25T05:53:27.153Z,15.75
2017-10-25T05:54:27.073Z,15.78
2017-10-25T05:55:26.999Z,15.75
2017-10-25T05:56:26.898Z,15.84
2017-10-25T05:57:26.833Z,15.86
2017-10-25T05:58:26.744Z,15.85
2017-10-25T05:59:26.673Z,15.99
2017-10-25T06:00:26.581Z,16.01
2017-10-25T06:01:26.494Z,15.85
2017-10-25T06:02:26.411Z,16.01
2017-10-25T06:03:26.335Z,15.82
2017-10-25T06:04:26.253Z,15.99
2017-10-25T06:05:26.179Z,16.03
2017-10-25T06:06:26.088Z,16.11
2017-10-25T06:07:26.019Z,16.09
2017-10-25T06:08:25.922Z,15.88
2017-10-25T06:09:25.840Z,15.85
2017-10-25T06:10:25.764Z,15.89
2017-10-25T06:11:25.693Z,15.86
2017-10-25T06:12:25.599Z,15.86
2017-10-25T06:13:25.532Z,15.94
2017-10-25T06:14:25.453Z,15.94
2017-10-25T06:15:25.360Z,15.84
2017-10-25T06:16:25.282Z,15.86
2017-10-25T06:17:25.198Z,15.88
2017-10-25T06:18:25.122Z,15.89
2017-10-25T06:19:25.029Z,15.86
2017-10-25T06:20:24.950Z,15.76
2017-10-25T06:21:24.875Z,15.75
2017-10-25T06:22:24.805Z,15.76
2017-10-25T06:23:24.714Z,15.85
2017-10-25T06:24:24.633Z,15.88
2017-10-25T06:25:24.552Z,15.86
2017-10-25T06:26:24.483Z,15.88
2017-10-25T06:27:24.386Z,15.89
2017-10-25T06:28:24.305Z,15.84
2017-10-25T06:29:24.234Z,15.94
2017-10-25T06:30:24.144Z,15.96
2017-10-25T06:31:24.069Z,15.86
2017-10-25T06:32:23.991Z,15.96
2017-10-25T06:33:23.895Z,15.99
2017-10-25T06:34:23.817Z,16.00
2017-10-25T06:35:23.741Z,15.81
2017-10-25T06:36:23.656Z,15.81
2017-10-25T06:37:23.572Z,15.96
2017-10-25T06:38:23.498Z,15.85
2017-10-25T06:39:23.409Z,15.97
2017-10-25T06:40:23.322Z,16.00
2017-10-25T06:41:23.249Z,15.92
2017-10-25T06:42:23.165Z,15.93
2017-10-25T06:43:23.089Z,15.97
2017-10-25T06:44:23.000Z,15.89
2017-10-25T06:45:22.920Z,15.96
2017-10-25T06:46:22.844Z,15.88
2017-10-25T06:47:22.762Z,15.78
2017-10-25T06:48:22.676Z,15.76
2017-10-25T06:49:22.613Z,15.96
2017-10-25T06:50:22.512Z,15.59
2017-10-25T06:51:22.479Z,15.51
2017-10-25T06:52:22.356Z,15.48
2017-10-25T06:53:22.276Z,15.67
2017-10-25T06:54:22.189Z,15.66
2017-10-25T06:55:22.123Z,15.76
2017-10-25T06:56:22.026Z,15.82
2017-10-25T06:57:21.947Z,15.85
2017-10-25T06:58:21.886Z,15.97
2017-10-25T06:59:21.779Z,16.01
2017-10-25T07:00:21.701Z,16.06
2017-10-25T07:01:21.622Z,16.00
2017-10-25T07:02:21.542Z,16.00
2017-10-25T07:03:21.474Z,16.09
2017-10-25T07:04:21.384Z,16.07
2017-10-25T07:05:21.299Z,15.99
2017-10-25T07:06:21.231Z,16.03
2017-10-25T07:07:21.141Z,16.01
2017-10-25T07:08:21.047Z,16.03
2017-10-25T07:09:20.966Z,15.99
2017-10-25T07:10:20.898Z,16.11
2017-10-25T07:11:20.812Z,16.04
2017-10-25T07:12:20.724Z,16.12
2017-10-25T07:13:20.637Z,16.11
2017-10-25T07:14:20.559Z,16.12
2017-10-25T07:15:20.477Z,15.99
2017-10-25T07:16:20.394Z,15.97
2017-10-25T07:17:20.317Z,15.99
2017-10-25T07:18:20.232Z,15.89
2017-10-25T07:19:20.158Z,15.84
2017-10-25T07:20:20.073Z,16.03
2017-10-25T07:21:19.994Z,16.01
2017-10-25T07:22:19.907Z,15.97
2017-10-25T07:23:19.831Z,16.03
2017-10-25T07:24:19.757Z,16.03
2017-10-25T07:25:19.672Z,16.04
2017-10-25T07:26:19.590Z,15.99
2017-10-25T07:27:19.511Z,16.11
2017-10-25T07:28:19.418Z,15.76
2017-10-25T07:29:19.336Z,15.89
2017-10-25T07:30:19.254Z,15.97
2017-10-25T07:31:19.174Z,16.03
2017-10-25T07:32:19.087Z,16.07
2017-10-25T07:33:19.005Z,16.06
2017-10-25T07:34:18.939Z,15.54
2017-10-25T07:35:18.853Z,15.61
2017-10-25T07:36:18.759Z,15.63
2017-10-25T07:37:18.684Z,15.79
2017-10-25T07:38:18.602Z,15.96
2017-10-25T07:39:18.531Z,15.94
2017-10-25T07:40:18.437Z,15.96
2017-10-25T07:41:18.413Z,16.06
2017-10-25T07:42:18.276Z,16.04
2017-10-25T07:43:18.191Z,15.99
2017-10-25T07:44:18.125Z,16.00
2017-10-25T07:45:18.036Z,16.06
2017-10-25T07:46:17.949Z,16.01
2017-10-25T07:47:17.865Z,16.07
2017-10-25T07:48:17.779Z,16.12
2017-10-25T07:49:17.696Z,16.12
2017-10-25T07:50:17.616Z,15.99
2017-10-25T07:51:17.535Z,16.14
2017-10-25T07:52:17.464Z,15.99
2017-10-25T07:53:17.372Z,16.01
2017-10-25T07:54:17.292Z,15.76
2017-10-25T07:55:17.215Z,15.99
2017-10-25T07:56:17.124Z,16.03
2017-10-25T07:57:17.044Z,16.06
2017-10-25T07:58:16.965Z,16.07
2017-10-25T07:59:16.889Z,16.12
2017-10-25T08:00:16.797Z,16.12
2017-10-25T08:01:16.714Z,16.22
2017-10-25T08:02:16.657Z,16.06
2017-10-25T08:03:16.555Z,16.11
2017-10-25T08:04:16.468Z,16.11
2017-10-25T08:05:16.396Z,16.15
2017-10-25T08:06:16.312Z,16.12
2017-10-25T08:07:16.236Z,16.09
2017-10-25T08:08:16.170Z,16.09
2017-10-25T08:09:16.062Z,16.11
2017-10-25T08:10:15.984Z,16.06
2017-10-25T08:11:15.909Z,16.16
2017-10-25T08:12:15.826Z,16.30
2017-10-25T08:13:15.739Z,16.25
2017-10-25T08:14:15.658Z,16.37
2017-10-25T08:15:15.580Z,16.34
2017-10-25T08:16:15.490Z,16.26
2017-10-25T08:17:15.420Z,16.23
2017-10-25T08:18:15.330Z,16.27
2017-10-25T08:19:15.264Z,16.31
2017-10-25T08:20:15.168Z,16.48
2017-10-25T08:21:15.092Z,16.41
2017-10-25T08:22:15.003Z,16.59
2017-10-25T08:23:14.923Z,16.65
2017-10-25T08:24:14.842Z,16.68
2017-10-25T08:25:14.760Z,16.49
2017-10-25T08:26:14.694Z,16.67
2017-10-25T08:27:14.603Z,16.78
2017-10-25T08:28:14.519Z,16.93
2017-10-25T08:29:14.433Z,17.10
2017-10-25T08:30:14.359Z,17.18
2017-10-25T08:31:14.276Z,17.17
2017-10-25T08:32:14.198Z,17.23
2017-10-25T08:33:14.112Z,17.30
2017-10-25T08:34:14.041Z,17.38
2017-10-25T08:35:13.957Z,17.44
2017-10-25T08:36:13.876Z,17.48
2017-10-25T08:37:13.817Z,17.64
2017-10-25T08:38:13.712Z,17.81
2017-10-25T08:39:13.642Z,17.67
2017-10-25T08:40:13.569Z,17.82
2017-10-25T08:41:13.472Z,17.92
2017-10-25T08:42:13.401Z,17.92
2017-10-25T08:43:13.315Z,17.73
2017-10-25T08:44:13.250Z,17.48
2017-10-25T08:45:13.159Z,17.70
2017-10-25T08:46:13.081Z,17.81
2017-10-25T08:47:13.043Z,18.15
2017-10-25T08:48:12.925Z,18.59
2017-10-25T08:49:12.838Z,18.98
2017-10-25T08:50:12.775Z,19.38
2017-10-25T08:51:12.703Z,19.66
2017-10-25T08:52:12.602Z,19.93
2017-10-25T08:53:12.529Z,19.93
2017-10-25T08:54:12.481Z,19.68
2017-10-25T08:55:12.372Z,19.53
2017-10-25T08:56:13.033Z,19.51
2017-10-25T08:57:12.226Z,19.79
2017-10-25T08:58:12.144Z,20.31
2017-10-25T08:59:12.075Z,20.59
2017-10-25T09:00:11.986Z,20.72
2017-10-25T09:01:11.919Z,21.05
2017-10-25T09:02:11.839Z,21.20
2017-10-25T09:03:11.800Z,21.46
2017-10-25T09:04:11.687Z,21.21
2017-10-25T09:05:11.613Z,20.56
2017-10-25T09:06:11.544Z,20.90
2017-10-25T09:07:11.467Z,21.20
2017-10-25T09:08:11.395Z,21.17
2017-10-25T09:09:11.310Z,21.05
2017-10-25T09:10:11.246Z,20.68
2017-10-25T09:11:11.169Z,21.01
2017-10-25T09:12:11.088Z,20.93
2017-10-25T09:13:11.016Z,20.80
2017-10-25T09:14:10.937Z,20.30
2017-10-25T09:15:10.888Z,20.00
2017-10-25T09:16:10.788Z,19.91
2017-10-25T09:17:10.719Z,19.95
2017-10-25T09:18:10.623Z,20.00
2017-10-25T09:19:10.546Z,20.02
2017-10-25T09:20:10.473Z,20.18
2017-10-25T09:21:10.390Z,19.97
2017-10-25T09:22:10.324Z,19.84
2017-10-25T09:23:10.252Z,19.83
2017-10-25T09:24:10.154Z,19.69
2017-10-25T09:25:10.080Z,19.75
2017-10-25T09:26:10.004Z,19.87
2017-10-25T09:27:09.928Z,19.88
2017-10-25T09:28:09.857Z,19.76
2017-10-25T09:29:09.778Z,19.90
2017-10-25T09:30:09.697Z,19.84
2017-10-25T09:31:09.608Z,20.03
2017-10-25T09:32:09.530Z,20.15
2017-10-25T09:33:09.492Z,20.43
2017-10-25T09:34:09.380Z,20.47
2017-10-25T09:35:09.305Z,20.54
2017-10-25T09:36:09.287Z,20.49
2017-10-25T09:37:09.180Z,20.62
2017-10-25T09:38:09.096Z,20.54
2017-10-25T09:39:09.011Z,20.69
2017-10-25T09:40:08.921Z,20.65
2017-10-25T09:41:08.840Z,20.87
2017-10-25T09:42:08.778Z,20.79
2017-10-25T09:43:08.701Z,20.66
2017-10-25T09:44:08.614Z,20.50
2017-10-25T09:45:08.535Z,20.28
2017-10-25T09:46:08.463Z,20.15
2017-10-25T09:47:08.382Z,20.20
2017-10-25T09:48:08.301Z,20.21
2017-10-25T09:49:08.232Z,20.42
2017-10-25T09:50:08.161Z,20.59
2017-10-25T09:51:08.089Z,20.72
2017-10-25T09:52:07.999Z,21.39
2017-10-25T09:53:07.921Z,21.94
2017-10-25T09:54:07.845Z,22.09
2017-10-25T09:55:07.768Z,22.59
2017-10-25T09:56:07.699Z,22.90
2017-10-25T09:57:07.634Z,23.07
2017-10-25T09:58:07.547Z,23.35
2017-10-25T09:59:07.481Z,23.26
2017-10-25T10:00:07.403Z,23.62
2017-10-25T10:01:07.330Z,23.45
2017-10-25T10:02:07.258Z,23.77
2017-10-25T10:03:07.198Z,24.04
2017-10-25T10:04:07.122Z,24.16
2017-10-25T10:05:07.046Z,24.44
2017-10-25T10:06:06.972Z,24.24
2017-10-25T10:07:06.906Z,24.52
2017-10-25T10:08:06.837Z,24.49
2017-10-25T10:09:06.773Z,24.19
2017-10-25T10:10:06.698Z,24.37
2017-10-25T10:11:06.629Z,24.54
2017-10-25T10:12:06.549Z,24.82
2017-10-25T10:13:06.480Z,24.71
2017-10-25T10:14:06.414Z,24.44
2017-10-25T10:15:06.345Z,24.17
2017-10-25T10:16:06.287Z,24.24
2017-10-25T10:17:06.210Z,24.05
2017-10-25T10:18:06.133Z,24.10
2017-10-25T10:19:06.061Z,24.16
2017-10-25T10:20:05.998Z,24.24
2017-10-25T10:21:05.916Z,24.29
2017-10-25T10:22:05.845Z,24.57
2017-10-25T10:23:05.787Z,24.69
2017-10-25T10:24:05.708Z,24.57
2017-10-25T10:25:05.636Z,24.50
2017-10-25T10:26:05.575Z,24.50
2017-10-25T10:27:05.500Z,24.56
2017-10-25T10:28:05.440Z,24.57
2017-10-25T10:29:05.371Z,24.87
2017-10-25T10:30:05.291Z,25.16
2017-10-25T10:31:05.228Z,25.30
2017-10-25T10:32:05.158Z,25.34
2017-10-25T10:33:05.085Z,25.12
2017-10-25T10:34:05.017Z,25.19
2017-10-25T10:35:04.959Z,25.42
2017-10-25T10:36:04.885Z,25.57
2017-10-25T10:37:04.819Z,25.53
2017-10-25T10:38:04.772Z,25.59
2017-10-25T10:39:04.685Z,25.83
2017-10-25T10:40:04.628Z,25.62
2017-10-25T10:41:04.539Z,25.65
2017-10-25T10:42:04.477Z,25.65
2017-10-25T10:43:04.406Z,25.43
2017-10-25T10:44:04.339Z,25.35
2017-10-25T10:45:04.296Z,25.35
2017-10-25T10:46:04.212Z,25.37
2017-10-25T10:47:04.131Z,25.56
2017-10-25T10:48:04.065Z,25.61
2017-10-25T10:49:03.999Z,25.84
2017-10-25T10:50:03.931Z,25.94
2017-10-25T10:51:03.865Z,25.72
2017-10-25T10:52:03.793Z,25.28
2017-10-25T10:53:03.723Z,25.15
2017-10-25T10:54:03.657Z,25.43
2017-10-25T10:55:03.592Z,25.39
2017-10-25T10:56:03.518Z,25.69
2017-10-25T10:57:03.449Z,25.65
2017-10-25T10:58:03.387Z,25.83
2017-10-25T10:59:03.310Z,25.93
2017-10-25T11:00:03.239Z,26.04
2017-10-25T11:01:03.194Z,25.72
2017-10-25T11:02:03.110Z,26.05
2017-10-25T11:03:03.044Z,25.98
2017-10-25T11:04:02.977Z,25.83
2017-10-25T11:05:02.933Z,26.04
2017-10-25T11:06:02.840Z,26.18
2017-10-25T11:07:02.785Z,26.20
2017-10-25T11:08:02.714Z,26.17
2017-10-25T11:09:02.638Z,26.39
2017-10-25T11:10:02.575Z,26.35
2017-10-25T11:11:02.509Z,26.35
2017-10-25T11:12:02.489Z,26.39
2017-10-25T11:13:02.378Z,26.35
2017-10-25T11:14:02.310Z,26.28
2017-10-25T11:15:02.260Z,26.37
2017-10-25T11:16:02.186Z,26.17
2017-10-25T11:17:02.134Z,26.04
2017-10-25T11:18:02.050Z,25.71
2017-10-25T11:19:01.990Z,25.71
2017-10-25T11:20:01.927Z,25.89
2017-10-25T11:21:01.845Z,26.01
2017-10-25T11:22:01.780Z,26.01
2017-10-25T11:23:01.712Z,26.01
2017-10-25T11:24:01.650Z,25.99
2017-10-25T11:25:01.579Z,25.93
2017-10-25T11:26:01.529Z,25.84
2017-10-25T11:27:01.452Z,25.93
2017-10-25T11:28:01.391Z,25.97
2017-10-25T11:29:01.294Z,25.84
2017-10-25T11:30:01.241Z,25.75
2017-10-25T11:31:01.163Z,25.90
2017-10-25T11:32:01.110Z,25.43
2017-10-25T11:33:01.041Z,25.57
2017-10-25T11:34:00.969Z,24.91
2017-10-25T11:35:00.892Z,25.12
2017-10-25T11:36:00.814Z,25.35
2017-10-25T11:37:00.741Z,25.44
2017-10-25T11:38:00.678Z,25.39
2017-10-25T11:39:00.595Z,25.17
2017-10-25T11:40:00.556Z,25.39
2017-10-25T11:41:00.462Z,25.46
2017-10-25T11:42:00.402Z,25.54
2017-10-25T11:43:00.310Z,25.50
2017-10-25T11:44:00.228Z,25.59
2017-10-25T11:45:00.150Z,25.24
2017-10-25T11:46:00.074Z,25.54
2017-10-25T11:46:59.994Z,25.47
2017-10-25T11:47:59.930Z,25.37
2017-10-25T11:48:59.847Z,24.94
2017-10-25T11:49:59.777Z,25.01
2017-10-25T11:50:59.703Z,24.94
2017-10-25T11:51:59.626Z,25.10
2017-10-25T11:52:59.585Z,24.94
2017-10-25T11:53:59.478Z,25.15
2017-10-25T11:54:59.408Z,25.01
2017-10-25T11:55:59.329Z,24.83
2017-10-25T11:56:59.262Z,24.88
2017-10-25T11:57:59.176Z,24.54
2017-10-25T11:58:59.097Z,24.41
2017-10-25T11:59:59.026Z,24.23
2017-10-25T12:00:58.959Z,24.42
2017-10-25T12:01:58.883Z,24.22
2017-10-25T12:02:58.800Z,23.98
2017-10-25T12:03:58.718Z,23.87
2017-10-25T12:04:58.654Z,23.72
2017-10-25T12:05:58.577Z,23.46
2017-10-25T12:06:58.503Z,23.57
2017-10-25T12:07:58.437Z,23.55
2017-10-25T12:08:58.388Z,23.75
2017-10-25T12:09:58.303Z,23.92
2017-10-25T12:10:58.200Z,23.70
2017-10-25T12:11:58.112Z,23.82
2017-10-25T12:12:58.040Z,23.87
2017-10-25T12:13:57.961Z,23.76
2017-10-25T12:14:57.921Z,23.76
2017-10-25T12:15:57.819Z,23.82
2017-10-25T12:16:57.751Z,23.64
2017-10-25T12:17:57.661Z,23.70
2017-10-25T12:18:57.582Z,23.83
2017-10-25T12:19:57.506Z,23.53
2017-10-25T12:20:57.431Z,23.26
2017-10-25T12:21:57.352Z,23.58
2017-10-25T12:22:57.286Z,23.61
2017-10-25T12:23:57.202Z,23.53
2017-10-25T12:24:57.128Z,23.49
2017-10-25T12:25:57.043Z,23.53
2017-10-25T12:26:56.974Z,23.55
2017-10-25T12:27:56.898Z,23.46
2017-10-25T12:28:56.821Z,23.35
2017-10-25T12:29:56.749Z,23.38
2017-10-25T12:30:56.673Z,23.32
2017-10-25T12:31:56.596Z,23.19
2017-10-25T12:32:56.521Z,23.20
2017-10-25T12:33:56.443Z,22.99
2017-10-25T12:34:56.372Z,23.01
2017-10-25T12:35:56.320Z,22.97
2017-10-25T12:36:56.226Z,22.97
2017-10-25T12:37:56.144Z,22.94
2017-10-25T12:38:56.068Z,23.04
2017-10-25T12:39:56.003Z,23.17
2017-10-25T12:40:55.924Z,23.08
2017-10-25T12:41:55.852Z,23.07
2017-10-25T12:42:55.769Z,23.14
2017-10-25T12:43:55.684Z,22.84
2017-10-25T12:44:55.617Z,22.67
2017-10-25T12:45:55.533Z,22.82
2017-10-25T12:46:55.456Z,23.05
2017-10-25T12:47:55.379Z,23.07
2017-10-25T12:48:55.302Z,22.93
2017-10-25T12:49:55.244Z,22.97
2017-10-25T12:50:55.145Z,22.94
2017-10-25T12:51:55.067Z,22.83